sensor_id;sensor_type;location;lat;lon;timestamp;P1;durP1;ratioP1;P2;durP2;ratioP2
11197;SDS011;5655;48.744;9.162;2022-10-16T00:01:15;1.90;;;1.50;;
11197;SDS011;5655;48.744;9.162;2022-10-16T00:03:41;2.13;;;1.33;;
11197;SDS011;5655;48.744;9.162;2022-10-16T00:06:08;2.45;;;1.50;;
11197;SDS011;5655;48.744;9.162;2022-10-16T00:08:34;2.13;;;1.50;;
11197;SDS011;5655;48.744;9.162;2022-10-16T00:13:31;2.08;;;1.70;;
11197;SDS011;5655;48.744;9.162;2022-10-16T00:15:58;3.97;;;1.60;;
11197;SDS011;5655;48.744;9.162;2022-10-16T00:18:25;2.13;;;1.40;;
11197;SDS011;5655;48.744;9.162;2022-10-16T00:20:51;6.18;;;1.30;;
11197;SDS011;5655;48.744;9.162;2022-10-16T00:23:17;3.88;;;1.60;;
11197;SDS011;5655;48.744;9.162;2022-10-16T00:25:42;3.75;;;1.60;;
11197;SDS011;5655;48.744;9.162;2022-10-16T00:28:07;2.05;;;1.60;;
11197;SDS011;5655;48.744;9.162;2022-10-16T00:30:33;3.28;;;1.60;;
11197;SDS011;5655;48.744;9.162;2022-10-16T00:32:58;1.40;;;1.30;;
11197;SDS011;5655;48.744;9.162;2022-10-16T00:35:23;2.05;;;1.42;;
11197;SDS011;5655;48.744;9.162;2022-10-16T00:37:49;2.35;;;1.67;;
11197;SDS011;5655;48.744;9.162;2022-10-16T00:40:14;3.20;;;1.50;;
11197;SDS011;5655;48.744;9.162;2022-10-16T00:42:40;3.70;;;1.52;;
11197;SDS011;5655;48.744;9.162;2022-10-16T00:45:05;3.67;;;1.70;;
11197;SDS011;5655;48.744;9.162;2022-10-16T00:47:39;1.80;;;1.42;;
11197;SDS011;5655;48.744;9.162;2022-10-16T00:52:58;1.80;;;1.70;;
11197;SDS011;5655;48.744;9.162;2022-10-16T00:55:25;1.65;;;1.55;;
11197;SDS011;5655;48.744;9.162;2022-10-16T00:57:53;1.80;;;1.30;;
11197;SDS011;5655;48.744;9.162;2022-10-16T01:00:20;2.20;;;1.40;;
11197;SDS011;5655;48.744;9.162;2022-10-16T01:03:23;2.20;;;1.60;;
11197;SDS011;5655;48.744;9.162;2022-10-16T01:05:50;2.15;;;1.42;;
11197;SDS011;5655;48.744;9.162;2022-10-16T01:08:33;1.67;;;1.58;;
11197;SDS011;5655;48.744;9.162;2022-10-16T01:11:11;2.90;;;1.55;;
11197;SDS011;5655;48.744;9.162;2022-10-16T01:13:58;1.95;;;1.40;;
11197;SDS011;5655;48.744;9.162;2022-10-16T01:16:34;1.73;;;1.30;;
11197;SDS011;5655;48.744;9.162;2022-10-16T01:21:51;3.30;;;1.30;;
11197;SDS011;5655;48.744;9.162;2022-10-16T01:32:20;2.00;;;1.33;;
11197;SDS011;5655;48.744;9.162;2022-10-16T01:34:48;2.03;;;1.50;;
11197;SDS011;5655;48.744;9.162;2022-10-16T01:37:22;3.67;;;1.48;;
11197;SDS011;5655;48.744;9.162;2022-10-16T01:39:55;1.90;;;1.55;;
11197;SDS011;5655;48.744;9.162;2022-10-16T01:42:26;3.80;;;1.42;;
11197;SDS011;5655;48.744;9.162;2022-10-16T01:44:59;1.92;;;1.45;;
11197;SDS011;5655;48.744;9.162;2022-10-16T01:47:25;3.30;;;1.60;;
11197;SDS011;5655;48.744;9.162;2022-10-16T01:49:55;2.70;;;1.77;;
11197;SDS011;5655;48.744;9.162;2022-10-16T01:52:24;1.80;;;1.40;;
11197;SDS011;5655;48.744;9.162;2022-10-16T01:54:53;2.47;;;1.45;;
11197;SDS011;5655;48.744;9.162;2022-10-16T01:57:22;5.22;;;1.80;;
11197;SDS011;5655;48.744;9.162;2022-10-16T01:59:50;3.35;;;1.90;;
11197;SDS011;5655;48.744;9.162;2022-10-16T02:02:21;3.72;;;1.80;;
11197;SDS011;5655;48.744;9.162;2022-10-16T02:04:54;2.53;;;1.70;;
11197;SDS011;5655;48.744;9.162;2022-10-16T02:07:26;5.10;;;1.67;;
11197;SDS011;5655;48.744;9.162;2022-10-16T02:09:52;5.47;;;1.80;;
11197;SDS011;5655;48.744;9.162;2022-10-16T02:12:23;2.75;;;1.75;;
11197;SDS011;5655;48.744;9.162;2022-10-16T02:14:53;3.60;;;2.08;;
11197;SDS011;5655;48.744;9.162;2022-10-16T02:17:19;2.97;;;1.60;;
11197;SDS011;5655;48.744;9.162;2022-10-16T02:19:45;3.30;;;1.73;;
11197;SDS011;5655;48.744;9.162;2022-10-16T02:22:18;2.28;;;1.67;;
11197;SDS011;5655;48.744;9.162;2022-10-16T02:24:59;3.95;;;1.55;;
11197;SDS011;5655;48.744;9.162;2022-10-16T02:27:33;4.57;;;2.03;;
11197;SDS011;5655;48.744;9.162;2022-10-16T02:32:44;7.63;;;1.70;;
11197;SDS011;5655;48.744;9.162;2022-10-16T02:35:12;4.18;;;1.48;;
11197;SDS011;5655;48.744;9.162;2022-10-16T02:37:39;1.70;;;1.55;;
11197;SDS011;5655;48.744;9.162;2022-10-16T02:40:06;2.10;;;1.30;;
11197;SDS011;5655;48.744;9.162;2022-10-16T02:42:36;3.17;;;1.60;;
11197;SDS011;5655;48.744;9.162;2022-10-16T02:45:03;3.05;;;1.65;;
11197;SDS011;5655;48.744;9.162;2022-10-16T02:47:30;2.03;;;1.60;;
11197;SDS011;5655;48.744;9.162;2022-10-16T02:49:55;3.75;;;1.63;;
11197;SDS011;5655;48.744;9.162;2022-10-16T02:52:20;3.60;;;1.80;;
11197;SDS011;5655;48.744;9.162;2022-10-16T02:54:46;3.10;;;1.90;;
11197;SDS011;5655;48.744;9.162;2022-10-16T02:57:11;2.15;;;1.63;;
11197;SDS011;5655;48.744;9.162;2022-10-16T02:59:36;1.88;;;1.60;;
11197;SDS011;5655;48.744;9.162;2022-10-16T03:02:02;3.22;;;1.63;;
11197;SDS011;5655;48.744;9.162;2022-10-16T03:04:28;5.80;;;1.88;;
11197;SDS011;5655;48.744;9.162;2022-10-16T03:06:53;3.10;;;1.50;;
11197;SDS011;5655;48.744;9.162;2022-10-16T03:09:18;1.70;;;1.60;;
11197;SDS011;5655;48.744;9.162;2022-10-16T03:11:43;4.97;;;1.65;;
11197;SDS011;5655;48.744;9.162;2022-10-16T03:14:09;3.42;;;1.50;;
11197;SDS011;5655;48.744;9.162;2022-10-16T03:16:34;5.28;;;1.70;;
11197;SDS011;5655;48.744;9.162;2022-10-16T03:18:59;1.70;;;1.30;;
11197;SDS011;5655;48.744;9.162;2022-10-16T03:21:25;2.08;;;1.55;;
11197;SDS011;5655;48.744;9.162;2022-10-16T03:23:50;3.08;;;1.35;;
11197;SDS011;5655;48.744;9.162;2022-10-16T03:26:15;2.25;;;1.60;;
11197;SDS011;5655;48.744;9.162;2022-10-16T03:28:40;3.50;;;1.67;;
11197;SDS011;5655;48.744;9.162;2022-10-16T03:31:06;5.18;;;1.50;;
11197;SDS011;5655;48.744;9.162;2022-10-16T03:33:31;1.63;;;1.30;;
11197;SDS011;5655;48.744;9.162;2022-10-16T03:35:56;3.60;;;1.50;;
11197;SDS011;5655;48.744;9.162;2022-10-16T03:38:22;2.08;;;1.20;;
11197;SDS011;5655;48.744;9.162;2022-10-16T03:40:47;3.08;;;1.27;;
11197;SDS011;5655;48.744;9.162;2022-10-16T03:43:13;1.80;;;1.20;;
11197;SDS011;5655;48.744;9.162;2022-10-16T03:45:38;5.43;;;1.33;;
11197;SDS011;5655;48.744;9.162;2022-10-16T03:48:04;3.00;;;1.33;;
11197;SDS011;5655;48.744;9.162;2022-10-16T03:50:30;3.00;;;1.17;;
11197;SDS011;5655;48.744;9.162;2022-10-16T03:52:55;1.60;;;1.23;;
11197;SDS011;5655;48.744;9.162;2022-10-16T03:55:20;3.17;;;1.52;;
11197;SDS011;5655;48.744;9.162;2022-10-16T03:57:46;2.83;;;1.65;;
11197;SDS011;5655;48.744;9.162;2022-10-16T04:00:11;3.22;;;1.30;;
11197;SDS011;5655;48.744;9.162;2022-10-16T04:02:37;1.98;;;1.10;;
11197;SDS011;5655;48.744;9.162;2022-10-16T04:05:03;2.33;;;1.45;;
11197;SDS011;5655;48.744;9.162;2022-10-16T04:07:28;2.55;;;1.30;;
11197;SDS011;5655;48.744;9.162;2022-10-16T04:09:54;4.32;;;1.40;;
11197;SDS011;5655;48.744;9.162;2022-10-16T04:12:19;2.22;;;1.42;;
11197;SDS011;5655;48.744;9.162;2022-10-16T04:14:44;1.70;;;1.40;;
11197;SDS011;5655;48.744;9.162;2022-10-16T04:17:10;1.80;;;1.27;;
11197;SDS011;5655;48.744;9.162;2022-10-16T04:19:35;1.65;;;1.25;;
11197;SDS011;5655;48.744;9.162;2022-10-16T04:22:00;1.65;;;1.25;;
11197;SDS011;5655;48.744;9.162;2022-10-16T04:24:26;5.32;;;1.20;;
11197;SDS011;5655;48.744;9.162;2022-10-16T04:26:51;1.70;;;1.20;;
11197;SDS011;5655;48.744;9.162;2022-10-16T04:29:16;1.35;;;1.20;;
11197;SDS011;5655;48.744;9.162;2022-10-16T04:31:41;1.42;;;1.00;;
11197;SDS011;5655;48.744;9.162;2022-10-16T04:34:07;1.90;;;1.33;;
11197;SDS011;5655;48.744;9.162;2022-10-16T04:36:32;1.83;;;1.23;;
11197;SDS011;5655;48.744;9.162;2022-10-16T04:38:59;1.67;;;1.08;;
11197;SDS011;5655;48.744;9.162;2022-10-16T04:41:25;2.20;;;1.27;;
11197;SDS011;5655;48.744;9.162;2022-10-16T04:43:50;4.82;;;1.30;;
11197;SDS011;5655;48.744;9.162;2022-10-16T04:46:15;1.88;;;1.30;;
11197;SDS011;5655;48.744;9.162;2022-10-16T04:48:41;1.85;;;1.50;;
11197;SDS011;5655;48.744;9.162;2022-10-16T04:51:06;2.10;;;1.45;;
11197;SDS011;5655;48.744;9.162;2022-10-16T04:53:31;1.50;;;1.20;;
11197;SDS011;5655;48.744;9.162;2022-10-16T04:55:57;2.97;;;1.35;;
11197;SDS011;5655;48.744;9.162;2022-10-16T04:58:22;1.50;;;1.40;;
11197;SDS011;5655;48.744;9.162;2022-10-16T05:00:48;4.18;;;1.67;;
11197;SDS011;5655;48.744;9.162;2022-10-16T05:03:13;3.40;;;1.20;;
11197;SDS011;5655;48.744;9.162;2022-10-16T05:05:42;1.33;;;1.08;;
11197;SDS011;5655;48.744;9.162;2022-10-16T05:08:09;4.07;;;1.33;;
11197;SDS011;5655;48.744;9.162;2022-10-16T05:10:34;2.10;;;1.30;;
11197;SDS011;5655;48.744;9.162;2022-10-16T05:12:59;2.08;;;1.25;;
11197;SDS011;5655;48.744;9.162;2022-10-16T05:15:25;2.75;;;1.40;;
11197;SDS011;5655;48.744;9.162;2022-10-16T05:17:53;1.63;;;1.35;;
11197;SDS011;5655;48.744;9.162;2022-10-16T05:20:19;1.30;;;1.20;;
11197;SDS011;5655;48.744;9.162;2022-10-16T05:22:44;4.13;;;1.30;;
11197;SDS011;5655;48.744;9.162;2022-10-16T05:25:09;2.65;;;1.20;;
11197;SDS011;5655;48.744;9.162;2022-10-16T05:27:35;5.22;;;1.55;;
11197;SDS011;5655;48.744;9.162;2022-10-16T05:30:00;1.98;;;1.30;;
11197;SDS011;5655;48.744;9.162;2022-10-16T05:32:25;4.13;;;1.92;;
11197;SDS011;5655;48.744;9.162;2022-10-16T05:34:51;3.25;;;1.80;;
11197;SDS011;5655;48.744;9.162;2022-10-16T05:37:16;2.95;;;1.48;;
11197;SDS011;5655;48.744;9.162;2022-10-16T05:39:41;1.70;;;1.35;;
11197;SDS011;5655;48.744;9.162;2022-10-16T05:42:07;2.42;;;1.40;;
11197;SDS011;5655;48.744;9.162;2022-10-16T05:44:32;2.20;;;1.60;;
11197;SDS011;5655;48.744;9.162;2022-10-16T05:46:58;1.93;;;1.50;;
11197;SDS011;5655;48.744;9.162;2022-10-16T05:49:23;2.05;;;1.60;;
11197;SDS011;5655;48.744;9.162;2022-10-16T05:51:48;4.15;;;1.70;;
11197;SDS011;5655;48.744;9.162;2022-10-16T05:54:14;3.90;;;1.50;;
11197;SDS011;5655;48.744;9.162;2022-10-16T05:56:39;5.55;;;1.50;;
11197;SDS011;5655;48.744;9.162;2022-10-16T05:59:04;2.45;;;1.52;;
11197;SDS011;5655;48.744;9.162;2022-10-16T06:01:30;3.13;;;1.42;;
11197;SDS011;5655;48.744;9.162;2022-10-16T06:03:55;2.60;;;1.58;;
11197;SDS011;5655;48.744;9.162;2022-10-16T06:06:22;3.78;;;1.48;;
11197;SDS011;5655;48.744;9.162;2022-10-16T06:08:49;1.73;;;1.48;;
11197;SDS011;5655;48.744;9.162;2022-10-16T06:11:17;3.60;;;1.98;;
11197;SDS011;5655;48.744;9.162;2022-10-16T06:13:44;2.97;;;1.92;;
11197;SDS011;5655;48.744;9.162;2022-10-16T06:16:11;3.25;;;1.88;;
11197;SDS011;5655;48.744;9.162;2022-10-16T06:18:37;4.70;;;1.60;;
11197;SDS011;5655;48.744;9.162;2022-10-16T06:21:09;3.35;;;1.90;;
11197;SDS011;5655;48.744;9.162;2022-10-16T06:23:36;3.17;;;1.77;;
11197;SDS011;5655;48.744;9.162;2022-10-16T06:26:05;1.70;;;1.48;;
11197;SDS011;5655;48.744;9.162;2022-10-16T06:28:32;3.85;;;1.50;;
11197;SDS011;5655;48.744;9.162;2022-10-16T06:31:01;2.55;;;1.40;;
11197;SDS011;5655;48.744;9.162;2022-10-16T06:33:27;3.08;;;1.50;;
11197;SDS011;5655;48.744;9.162;2022-10-16T06:35:53;4.90;;;1.70;;
11197;SDS011;5655;48.744;9.162;2022-10-16T06:38:18;3.03;;;1.60;;
11197;SDS011;5655;48.744;9.162;2022-10-16T06:40:43;5.80;;;1.50;;
11197;SDS011;5655;48.744;9.162;2022-10-16T06:43:09;2.22;;;1.27;;
11197;SDS011;5655;48.744;9.162;2022-10-16T06:45:34;4.40;;;1.48;;
11197;SDS011;5655;48.744;9.162;2022-10-16T06:47:59;5.93;;;1.70;;
11197;SDS011;5655;48.744;9.162;2022-10-16T06:50:24;2.67;;;1.60;;
11197;SDS011;5655;48.744;9.162;2022-10-16T06:52:50;3.95;;;1.25;;
11197;SDS011;5655;48.744;9.162;2022-10-16T06:55:15;2.50;;;1.33;;
11197;SDS011;5655;48.744;9.162;2022-10-16T06:57:42;2.78;;;1.60;;
11197;SDS011;5655;48.744;9.162;2022-10-16T07:00:08;2.75;;;1.27;;
11197;SDS011;5655;48.744;9.162;2022-10-16T07:02:36;5.82;;;1.63;;
11197;SDS011;5655;48.744;9.162;2022-10-16T07:05:01;2.05;;;1.40;;
11197;SDS011;5655;48.744;9.162;2022-10-16T07:07:27;6.28;;;1.40;;
11197;SDS011;5655;48.744;9.162;2022-10-16T07:09:53;3.30;;;1.30;;
11197;SDS011;5655;48.744;9.162;2022-10-16T07:12:18;2.90;;;1.33;;
11197;SDS011;5655;48.744;9.162;2022-10-16T07:14:43;4.50;;;1.40;;
11197;SDS011;5655;48.744;9.162;2022-10-16T07:17:09;2.05;;;1.50;;
11197;SDS011;5655;48.744;9.162;2022-10-16T07:19:34;1.92;;;1.52;;
11197;SDS011;5655;48.744;9.162;2022-10-16T07:22:00;1.50;;;1.25;;
11197;SDS011;5655;48.744;9.162;2022-10-16T07:24:25;3.90;;;1.35;;
11197;SDS011;5655;48.744;9.162;2022-10-16T07:26:51;1.83;;;1.60;;
11197;SDS011;5655;48.744;9.162;2022-10-16T07:29:19;1.73;;;1.60;;
11197;SDS011;5655;48.744;9.162;2022-10-16T07:31:46;2.95;;;1.50;;
11197;SDS011;5655;48.744;9.162;2022-10-16T07:34:13;4.82;;;1.63;;
11197;SDS011;5655;48.744;9.162;2022-10-16T07:36:40;1.60;;;1.50;;
11197;SDS011;5655;48.744;9.162;2022-10-16T07:39:05;2.65;;;1.60;;
11197;SDS011;5655;48.744;9.162;2022-10-16T07:41:31;6.35;;;1.48;;
11197;SDS011;5655;48.744;9.162;2022-10-16T07:43:58;2.10;;;1.60;;
11197;SDS011;5655;48.744;9.162;2022-10-16T07:46:25;1.42;;;1.20;;
11197;SDS011;5655;48.744;9.162;2022-10-16T07:48:51;1.95;;;1.25;;
11197;SDS011;5655;48.744;9.162;2022-10-16T07:51:18;1.48;;;1.38;;
11197;SDS011;5655;48.744;9.162;2022-10-16T07:53:45;2.60;;;1.67;;
11197;SDS011;5655;48.744;9.162;2022-10-16T07:56:11;3.92;;;1.42;;
11197;SDS011;5655;48.744;9.162;2022-10-16T07:58:38;2.58;;;1.60;;
11197;SDS011;5655;48.744;9.162;2022-10-16T08:01:04;2.55;;;1.60;;
11197;SDS011;5655;48.744;9.162;2022-10-16T08:03:32;3.10;;;1.90;;
11197;SDS011;5655;48.744;9.162;2022-10-16T08:05:58;1.88;;;1.27;;
11197;SDS011;5655;48.744;9.162;2022-10-16T08:08:24;1.65;;;1.30;;
11197;SDS011;5655;48.744;9.162;2022-10-16T08:10:49;2.13;;;1.38;;
11197;SDS011;5655;48.744;9.162;2022-10-16T08:13:15;2.55;;;1.50;;
11197;SDS011;5655;48.744;9.162;2022-10-16T08:15:41;3.00;;;1.33;;
11197;SDS011;5655;48.744;9.162;2022-10-16T08:18:07;2.35;;;1.58;;
11197;SDS011;5655;48.744;9.162;2022-10-16T08:20:33;4.85;;;1.65;;
11197;SDS011;5655;48.744;9.162;2022-10-16T08:22:58;2.70;;;1.60;;
11197;SDS011;5655;48.744;9.162;2022-10-16T08:25:25;3.42;;;1.60;;
11197;SDS011;5655;48.744;9.162;2022-10-16T08:27:51;2.55;;;1.38;;
11197;SDS011;5655;48.744;9.162;2022-10-16T08:30:17;4.97;;;1.30;;
11197;SDS011;5655;48.744;9.162;2022-10-16T08:32:44;2.90;;;1.33;;
11197;SDS011;5655;48.744;9.162;2022-10-16T08:35:10;3.22;;;1.40;;
11197;SDS011;5655;48.744;9.162;2022-10-16T08:37:36;4.72;;;1.40;;
11197;SDS011;5655;48.744;9.162;2022-10-16T08:40:03;2.05;;;1.42;;
11197;SDS011;5655;48.744;9.162;2022-10-16T08:45:34;4.45;;;1.77;;
11197;SDS011;5655;48.744;9.162;2022-10-16T08:48:23;2.78;;;1.30;;
11197;SDS011;5655;48.744;9.162;2022-10-16T08:50:55;2.25;;;1.20;;
11197;SDS011;5655;48.744;9.162;2022-10-16T08:53:27;3.22;;;1.50;;
11197;SDS011;5655;48.744;9.162;2022-10-16T08:55:56;4.00;;;1.33;;
11197;SDS011;5655;48.744;9.162;2022-10-16T08:58:26;4.10;;;1.52;;
11197;SDS011;5655;48.744;9.162;2022-10-16T09:00:54;4.35;;;1.40;;
11197;SDS011;5655;48.744;9.162;2022-10-16T09:14:06;3.17;;;1.75;;
11197;SDS011;5655;48.744;9.162;2022-10-16T09:16:41;3.20;;;1.70;;
11197;SDS011;5655;48.744;9.162;2022-10-16T09:19:20;4.55;;;1.45;;
11197;SDS011;5655;48.744;9.162;2022-10-16T09:22:15;3.45;;;1.60;;
11197;SDS011;5655;48.744;9.162;2022-10-16T09:24:42;3.03;;;1.40;;
11197;SDS011;5655;48.744;9.162;2022-10-16T09:27:11;2.13;;;1.20;;
11197;SDS011;5655;48.744;9.162;2022-10-16T09:29:38;2.58;;;1.63;;
11197;SDS011;5655;48.744;9.162;2022-10-16T09:32:11;1.83;;;1.33;;
11197;SDS011;5655;48.744;9.162;2022-10-16T09:34:41;2.42;;;1.23;;
11197;SDS011;5655;48.744;9.162;2022-10-16T09:37:09;2.17;;;1.40;;
11197;SDS011;5655;48.744;9.162;2022-10-16T09:39:45;3.58;;;1.20;;
11197;SDS011;5655;48.744;9.162;2022-10-16T09:42:19;2.08;;;1.02;;
11197;SDS011;5655;48.744;9.162;2022-10-16T09:44:48;2.22;;;1.10;;
11197;SDS011;5655;48.744;9.162;2022-10-16T09:47:19;2.97;;;1.40;;
11197;SDS011;5655;48.744;9.162;2022-10-16T09:49:51;1.50;;;1.30;;
11197;SDS011;5655;48.744;9.162;2022-10-16T09:52:27;1.70;;;1.20;;
11197;SDS011;5655;48.744;9.162;2022-10-16T09:54:54;2.50;;;1.33;;
11197;SDS011;5655;48.744;9.162;2022-10-16T09:57:22;2.00;;;1.05;;
11197;SDS011;5655;48.744;9.162;2022-10-16T09:59:49;1.63;;;1.10;;
11197;SDS011;5655;48.744;9.162;2022-10-16T10:02:19;2.03;;;1.13;;
11197;SDS011;5655;48.744;9.162;2022-10-16T10:04:56;2.95;;;1.13;;
11197;SDS011;5655;48.744;9.162;2022-10-16T10:07:25;1.42;;;1.20;;
11197;SDS011;5655;48.744;9.162;2022-10-16T10:09:53;5.68;;;1.05;;
11197;SDS011;5655;48.744;9.162;2022-10-16T10:12:23;2.83;;;1.20;;
11197;SDS011;5655;48.744;9.162;2022-10-16T10:14:51;0.90;;;0.80;;
11197;SDS011;5655;48.744;9.162;2022-10-16T10:17:27;2.63;;;1.13;;
11197;SDS011;5655;48.744;9.162;2022-10-16T10:19:57;3.15;;;1.15;;
11197;SDS011;5655;48.744;9.162;2022-10-16T10:22:43;1.60;;;1.05;;
11197;SDS011;5655;48.744;9.162;2022-10-16T10:30:34;1.75;;;1.13;;
11197;SDS011;5655;48.744;9.162;2022-10-16T10:39:02;3.47;;;1.20;;
11197;SDS011;5655;48.744;9.162;2022-10-16T10:44:50;1.00;;;0.80;;
11197;SDS011;5655;48.744;9.162;2022-10-16T10:47:27;2.83;;;1.13;;
11197;SDS011;5655;48.744;9.162;2022-10-16T11:01:06;3.83;;;1.15;;
11197;SDS011;5655;48.744;9.162;2022-10-16T11:11:40;1.17;;;1.08;;
11197;SDS011;5655;48.744;9.162;2022-10-16T11:16:43;3.03;;;1.10;;
11197;SDS011;5655;48.744;9.162;2022-10-16T11:22:26;2.17;;;1.15;;
11197;SDS011;5655;48.744;9.162;2022-10-16T11:25:00;3.38;;;1.10;;
11197;SDS011;5655;48.744;9.162;2022-10-16T11:27:53;1.67;;;1.00;;
11197;SDS011;5655;48.744;9.162;2022-10-16T11:30:24;2.92;;;0.90;;
11197;SDS011;5655;48.744;9.162;2022-10-16T11:35:30;2.25;;;1.20;;
11197;SDS011;5655;48.744;9.162;2022-10-16T11:38:02;1.65;;;1.08;;
11197;SDS011;5655;48.744;9.162;2022-10-16T11:40:35;2.47;;;0.93;;
11197;SDS011;5655;48.744;9.162;2022-10-16T11:46:05;4.40;;;1.33;;
11197;SDS011;5655;48.744;9.162;2022-10-16T11:48:42;4.63;;;1.30;;
11197;SDS011;5655;48.744;9.162;2022-10-16T11:54:04;1.88;;;1.15;;
11197;SDS011;5655;48.744;9.162;2022-10-16T11:56:33;4.47;;;1.40;;
11197;SDS011;5655;48.744;9.162;2022-10-16T11:59:06;4.57;;;1.45;;
11197;SDS011;5655;48.744;9.162;2022-10-16T12:01:42;1.48;;;1.00;;
11197;SDS011;5655;48.744;9.162;2022-10-16T12:07:11;1.65;;;0.85;;
11197;SDS011;5655;48.744;9.162;2022-10-16T12:09:40;1.55;;;1.23;;
11197;SDS011;5655;48.744;9.162;2022-10-16T12:12:25;2.80;;;1.10;;
11197;SDS011;5655;48.744;9.162;2022-10-16T12:15:25;1.45;;;0.70;;
11197;SDS011;5655;48.744;9.162;2022-10-16T12:17:55;1.20;;;1.00;;
11197;SDS011;5655;48.744;9.162;2022-10-16T12:20:28;1.90;;;1.30;;
11197;SDS011;5655;48.744;9.162;2022-10-16T12:23:01;8.57;;;1.40;;
11197;SDS011;5655;48.744;9.162;2022-10-16T12:25:33;2.08;;;0.98;;
11197;SDS011;5655;48.744;9.162;2022-10-16T12:30:40;2.05;;;0.93;;
11197;SDS011;5655;48.744;9.162;2022-10-16T12:33:16;4.07;;;1.35;;
11197;SDS011;5655;48.744;9.162;2022-10-16T12:35:47;1.73;;;1.10;;
11197;SDS011;5655;48.744;9.162;2022-10-16T12:38:19;1.67;;;1.00;;
11197;SDS011;5655;48.744;9.162;2022-10-16T12:41:02;2.75;;;0.88;;
11197;SDS011;5655;48.744;9.162;2022-10-16T12:43:40;1.42;;;1.00;;
11197;SDS011;5655;48.744;9.162;2022-10-16T12:48:35;1.13;;;1.02;;
11197;SDS011;5655;48.744;9.162;2022-10-16T12:51:19;1.63;;;0.90;;
11197;SDS011;5655;48.744;9.162;2022-10-16T12:54:19;3.05;;;1.00;;
11197;SDS011;5655;48.744;9.162;2022-10-16T12:59:16;1.80;;;1.00;;
11197;SDS011;5655;48.744;9.162;2022-10-16T13:07:31;1.73;;;1.20;;
11197;SDS011;5655;48.744;9.162;2022-10-16T13:12:38;3.28;;;0.90;;
11197;SDS011;5655;48.744;9.162;2022-10-16T13:15:31;3.17;;;1.08;;
11197;SDS011;5655;48.744;9.162;2022-10-16T13:23:34;3.50;;;1.17;;
11197;SDS011;5655;48.744;9.162;2022-10-16T13:28:42;1.33;;;1.08;;
11197;SDS011;5655;48.744;9.162;2022-10-16T13:31:20;1.52;;;1.17;;
11197;SDS011;5655;48.744;9.162;2022-10-16T13:33:52;1.50;;;1.40;;
11197;SDS011;5655;48.744;9.162;2022-10-16T13:44:52;2.95;;;1.45;;
11197;SDS011;5655;48.744;9.162;2022-10-16T13:47:22;3.22;;;1.45;;
11197;SDS011;5655;48.744;9.162;2022-10-16T13:50:02;2.58;;;1.30;;
11197;SDS011;5655;48.744;9.162;2022-10-16T13:52:29;2.60;;;1.50;;
11197;SDS011;5655;48.744;9.162;2022-10-16T13:54:55;2.72;;;0.90;;
11197;SDS011;5655;48.744;9.162;2022-10-16T13:57:22;2.42;;;1.33;;
11197;SDS011;5655;48.744;9.162;2022-10-16T13:59:49;1.38;;;1.27;;
11197;SDS011;5655;48.744;9.162;2022-10-16T14:02:22;1.60;;;1.27;;
11197;SDS011;5655;48.744;9.162;2022-10-16T14:05:01;1.50;;;1.30;;
11197;SDS011;5655;48.744;9.162;2022-10-16T14:07:29;3.25;;;1.40;;
11197;SDS011;5655;48.744;9.162;2022-10-16T14:09:59;3.45;;;1.30;;
11197;SDS011;5655;48.744;9.162;2022-10-16T14:12:28;2.35;;;1.33;;
11197;SDS011;5655;48.744;9.162;2022-10-16T14:14:54;1.60;;;1.50;;
11197;SDS011;5655;48.744;9.162;2022-10-16T14:17:33;2.58;;;1.23;;
11197;SDS011;5655;48.744;9.162;2022-10-16T14:20:02;2.33;;;1.70;;
11197;SDS011;5655;48.744;9.162;2022-10-16T14:24:55;2.92;;;1.42;;
11197;SDS011;5655;48.744;9.162;2022-10-16T14:27:34;4.75;;;1.55;;
11197;SDS011;5655;48.744;9.162;2022-10-16T14:32:32;2.90;;;1.35;;
11197;SDS011;5655;48.744;9.162;2022-10-16T14:34:57;3.05;;;1.40;;
11197;SDS011;5655;48.744;9.162;2022-10-16T14:37:31;2.67;;;1.27;;
11197;SDS011;5655;48.744;9.162;2022-10-16T14:39:57;2.88;;;1.50;;
11197;SDS011;5655;48.744;9.162;2022-10-16T14:42:23;3.05;;;1.40;;
11197;SDS011;5655;48.744;9.162;2022-10-16T14:44:53;4.20;;;1.48;;
11197;SDS011;5655;48.744;9.162;2022-10-16T14:47:20;1.88;;;1.40;;
11197;SDS011;5655;48.744;9.162;2022-10-16T14:49:51;1.75;;;1.55;;
11197;SDS011;5655;48.744;9.162;2022-10-16T14:52:19;2.10;;;1.88;;
11197;SDS011;5655;48.744;9.162;2022-10-16T14:54:47;1.67;;;1.27;;
11197;SDS011;5655;48.744;9.162;2022-10-16T14:57:23;2.05;;;1.65;;
11197;SDS011;5655;48.744;9.162;2022-10-16T14:59:52;1.95;;;1.42;;
11197;SDS011;5655;48.744;9.162;2022-10-16T15:04:45;4.20;;;1.42;;
11197;SDS011;5655;48.744;9.162;2022-10-16T15:07:10;5.25;;;1.83;;
11197;SDS011;5655;48.744;9.162;2022-10-16T15:09:36;3.30;;;1.40;;
11197;SDS011;5655;48.744;9.162;2022-10-16T15:12:01;2.63;;;1.58;;
11197;SDS011;5655;48.744;9.162;2022-10-16T15:14:26;1.75;;;1.40;;
11197;SDS011;5655;48.744;9.162;2022-10-16T15:16:51;3.28;;;1.50;;
11197;SDS011;5655;48.744;9.162;2022-10-16T15:19:17;5.05;;;1.63;;
11197;SDS011;5655;48.744;9.162;2022-10-16T15:21:42;1.98;;;1.67;;
11197;SDS011;5655;48.744;9.162;2022-10-16T15:24:09;1.85;;;1.23;;
11197;SDS011;5655;48.744;9.162;2022-10-16T15:26:37;3.08;;;1.63;;
11197;SDS011;5655;48.744;9.162;2022-10-16T15:29:02;6.72;;;1.55;;
11197;SDS011;5655;48.744;9.162;2022-10-16T15:31:28;3.72;;;1.45;;
11197;SDS011;5655;48.744;9.162;2022-10-16T15:33:53;2.03;;;1.73;;
11197;SDS011;5655;48.744;9.162;2022-10-16T15:36:26;3.53;;;1.52;;
11197;SDS011;5655;48.744;9.162;2022-10-16T15:38:53;4.38;;;1.67;;
11197;SDS011;5655;48.744;9.162;2022-10-16T15:41:18;2.85;;;1.70;;
11197;SDS011;5655;48.744;9.162;2022-10-16T15:43:44;2.05;;;1.65;;
11197;SDS011;5655;48.744;9.162;2022-10-16T15:46:11;2.05;;;1.40;;
11197;SDS011;5655;48.744;9.162;2022-10-16T15:48:39;3.28;;;1.75;;
11197;SDS011;5655;48.744;9.162;2022-10-16T15:51:05;4.63;;;1.73;;
11197;SDS011;5655;48.744;9.162;2022-10-16T15:53:32;3.95;;;1.90;;
11197;SDS011;5655;48.744;9.162;2022-10-16T15:56:01;2.10;;;1.42;;
11197;SDS011;5655;48.744;9.162;2022-10-16T15:58:29;2.25;;;1.98;;
11197;SDS011;5655;48.744;9.162;2022-10-16T16:00:55;3.35;;;1.98;;
11197;SDS011;5655;48.744;9.162;2022-10-16T16:03:22;1.85;;;1.40;;
11197;SDS011;5655;48.744;9.162;2022-10-16T16:05:48;4.22;;;1.70;;
11197;SDS011;5655;48.744;9.162;2022-10-16T16:08:13;4.03;;;1.77;;
11197;SDS011;5655;48.744;9.162;2022-10-16T16:10:38;4.32;;;1.55;;
11197;SDS011;5655;48.744;9.162;2022-10-16T16:13:04;2.67;;;2.30;;
11197;SDS011;5655;48.744;9.162;2022-10-16T16:15:29;3.47;;;1.90;;
11197;SDS011;5655;48.744;9.162;2022-10-16T16:17:54;5.07;;;2.08;;
11197;SDS011;5655;48.744;9.162;2022-10-16T16:20:20;2.50;;;2.30;;
11197;SDS011;5655;48.744;9.162;2022-10-16T16:22:45;4.60;;;1.75;;
11197;SDS011;5655;48.744;9.162;2022-10-16T16:25:10;4.38;;;2.50;;
11197;SDS011;5655;48.744;9.162;2022-10-16T16:27:36;3.70;;;2.28;;
11197;SDS011;5655;48.744;9.162;2022-10-16T16:30:03;6.70;;;1.90;;
11197;SDS011;5655;48.744;9.162;2022-10-16T16:32:32;2.85;;;1.98;;
11197;SDS011;5655;48.744;9.162;2022-10-16T16:34:58;2.35;;;2.05;;
11197;SDS011;5655;48.744;9.162;2022-10-16T16:37:23;3.50;;;2.20;;
11197;SDS011;5655;48.744;9.162;2022-10-16T16:39:48;3.33;;;2.05;;
11197;SDS011;5655;48.744;9.162;2022-10-16T16:42:14;5.53;;;2.78;;
11197;SDS011;5655;48.744;9.162;2022-10-16T16:44:39;2.65;;;2.20;;
11197;SDS011;5655;48.744;9.162;2022-10-16T16:47:04;4.18;;;2.05;;
11197;SDS011;5655;48.744;9.162;2022-10-16T16:49:30;4.82;;;2.83;;
11197;SDS011;5655;48.744;9.162;2022-10-16T16:51:56;6.03;;;2.50;;
11197;SDS011;5655;48.744;9.162;2022-10-16T16:54:21;8.98;;;3.45;;
11197;SDS011;5655;48.744;9.162;2022-10-16T16:56:46;4.13;;;2.65;;
11197;SDS011;5655;48.744;9.162;2022-10-16T16:59:16;10.73;;;3.28;;
11197;SDS011;5655;48.744;9.162;2022-10-16T17:01:44;9.02;;;3.30;;
11197;SDS011;5655;48.744;9.162;2022-10-16T17:04:10;4.57;;;3.17;;
11197;SDS011;5655;48.744;9.162;2022-10-16T17:06:36;5.43;;;3.33;;
11197;SDS011;5655;48.744;9.162;2022-10-16T17:09:02;4.80;;;2.88;;
11197;SDS011;5655;48.744;9.162;2022-10-16T17:11:29;9.23;;;3.22;;